Time;durP1;ratioP1;P1;durP2;ratioP2;P2;SDS_P1;SDS_P2;PMS_P1;PMS_P2;Temp;Humidity;BMP_temperature;BMP_pressure;BME280_temperature;BME280_humidity;BME280_pressure;Samples;Min_cycle;Max_cycle;Signal;HPM_P1;HPM_P2
2023/12/24 00:00:18;;;;;;;2.38;1.58;;;2.80;99.90;;;;;;5020455;28;20034;-64
2023/12/24 00:02:44;;;;;;;2.47;1.77;;;2.80;99.90;;;;;;5017525;28;20112;-63
2023/12/24 00:05:09;;;;;;;1.95;1.23;;;2.70;99.90;;;;;;5018902;28;20061;-63
2023/12/24 00:07:34;;;;;;;2.50;1.70;;;2.70;99.90;;;;;;5021166;28;20034;-64
2023/12/24 00:10:12;;;;;;;1.98;1.42;;;2.70;99.90;;;;;;5019463;28;20407;-65
2023/12/24 00:12:38;;;;;;;2.05;1.40;;;2.60;99.90;;;;;;5015655;28;20033;-64
2023/12/24 00:15:03;;;;;;;2.33;1.60;;;2.60;99.90;;;;;;5018117;28;20087;-64
2023/12/24 00:17:31;;;;;;;1.92;1.52;;;2.60;99.90;;;;;;5020499;28;20049;-64
2023/12/24 00:19:58;;;;;;;3.78;1.73;;;2.50;99.90;;;;;;5020425;28;20560;-65
2023/12/24 00:22:29;;;;;;;5.75;2.70;;;2.50;99.90;;;;;;5010180;28;20037;-65
2023/12/24 00:24:54;;;;;;;7.63;2.45;;;2.50;99.90;;;;;;5020223;28;20030;-64
2023/12/24 00:27:20;;;;;;;6.68;2.50;;;2.50;99.90;;;;;;5016196;28;20033;-65
2023/12/24 00:29:45;;;;;;;4.93;2.45;;;2.50;99.90;;;;;;5020117;28;20392;-64
2023/12/24 00:32:11;;;;;;;5.78;2.78;;;2.50;99.90;;;;;;5022198;28;20031;-65
2023/12/24 00:34:37;;;;;;;3.38;2.15;;;2.40;99.90;;;;;;5019911;28;20108;-65
2023/12/24 00:37:02;;;;;;;5.15;1.92;;;2.40;99.90;;;;;;5019624;28;20112;-64
2023/12/24 00:39:28;;;;;;;4.15;2.20;;;2.40;99.90;;;;;;5015972;28;20021;-64
2023/12/24 00:41:53;;;;;;;3.53;2.58;;;2.40;99.90;;;;;;5015919;28;20432;-64
2023/12/24 00:44:19;;;;;;;3.15;2.33;;;2.30;99.90;;;;;;5020064;28;20018;-64
2023/12/24 00:46:44;;;;;;;4.35;2.33;;;2.30;99.90;;;;;;5021132;28;20047;-64
2023/12/24 00:49:10;;;;;;;4.47;2.00;;;2.30;99.90;;;;;;5019897;28;20454;-65
2023/12/24 00:51:43;;;;;;;5.22;2.47;;;2.30;99.90;;;;;;5019860;28;20044;-64
2023/12/24 00:54:10;;;;;;;3.78;1.95;;;2.30;99.90;;;;;;5019991;28;20029;-64
2023/12/24 00:56:35;;;;;;;3.40;1.77;;;2.30;99.90;;;;;;5020150;28;20402;-64
2023/12/24 00:59:01;;;;;;;3.13;1.70;;;2.30;99.90;;;;;;5009127;28;20038;-64
2023/12/24 01:01:26;;;;;;;3.88;1.70;;;2.30;99.90;;;;;;5014673;28;20676;-64
2023/12/24 01:03:52;;;;;;;3.05;1.50;;;2.30;99.90;;;;;;5021649;28;20025;-64
2023/12/24 01:06:17;;;;;;;6.07;2.50;;;2.20;99.90;;;;;;5015612;28;20025;-64
2023/12/24 01:08:43;;;;;;;4.22;1.83;;;2.30;99.90;;;;;;5019666;28;20037;-65
2023/12/24 01:11:09;;;;;;;3.83;1.63;;;2.20;99.90;;;;;;5017247;28;20034;-64
2023/12/24 01:13:34;;;;;;;3.25;1.90;;;2.20;99.90;;;;;;5011533;28;20600;-64
2023/12/24 01:16:01;;;;;;;3.60;1.83;;;2.20;99.90;;;;;;5011530;28;20041;-64
2023/12/24 01:18:27;;;;;;;1.95;1.13;;;2.20;99.90;;;;;;5017358;28;20072;-64
2023/12/24 01:20:52;;;;;;;2.60;1.27;;;2.20;99.90;;;;;;5014177;28;20109;-64
2023/12/24 01:23:18;;;;;;;2.13;1.15;;;2.20;99.90;;;;;;5015322;28;20030;-65
2023/12/24 01:25:44;;;;;;;2.65;1.33;;;2.10;99.90;;;;;;5019311;28;20033;-64
2023/12/24 01:28:10;;;;;;;1.27;0.90;;;2.20;99.90;;;;;;5019489;28;20029;-65
2023/12/24 01:30:35;;;;;;;1.30;1.10;;;2.10;99.90;;;;;;5019188;28;20039;-64
2023/12/24 01:33:01;;;;;;;1.00;0.90;;;2.10;99.90;;;;;;5019181;28;20109;-64
2023/12/24 01:35:26;;;;;;;1.58;0.82;;;2.10;99.90;;;;;;5020308;28;20029;-65
2023/12/24 01:37:52;;;;;;;0.80;0.70;;;2.10;99.90;;;;;;5019251;28;20360;-64
2023/12/24 01:40:17;;;;;;;1.35;0.90;;;2.10;99.90;;;;;;5018872;28;20029;-65
2023/12/24 01:42:44;;;;;;;0.60;0.60;;;2.10;99.90;;;;;;5018980;28;20041;-65
2023/12/24 01:45:10;;;;;;;1.00;0.75;;;2.10;99.90;;;;;;5015073;28;20029;-64
2023/12/24 01:47:35;;;;;;;1.15;0.90;;;2.00;99.90;;;;;;5018423;28;20396;-64
2023/12/24 01:50:02;;;;;;;1.65;0.80;;;2.00;99.90;;;;;;5019010;28;20036;-64
2023/12/24 01:52:27;;;;;;;1.00;0.70;;;2.00;99.90;;;;;;5018918;28;20026;-64
2023/12/24 01:54:53;;;;;;;1.52;1.00;;;2.00;99.90;;;;;;5020494;28;20032;-65
2023/12/24 01:57:18;;;;;;;0.88;0.88;;;2.00;99.90;;;;;;5018657;28;20045;-66
2023/12/24 01:59:44;;;;;;;1.08;0.88;;;2.00;99.90;;;;;;5018042;28;20113;-65
2023/12/24 02:02:11;;;;;;;0.88;0.60;;;2.00;99.90;;;;;;5015446;28;20032;-65
2023/12/24 02:04:37;;;;;;;1.75;0.90;;;2.00;99.90;;;;;;5017211;28;20065;-65
2023/12/24 02:07:04;;;;;;;0.80;0.75;;;1.90;99.90;;;;;;5018170;28;20075;-64
2023/12/24 02:09:29;;;;;;;0.60;0.50;;;1.90;99.90;;;;;;5020378;28;20030;-65
2023/12/24 02:11:55;;;;;;;0.50;0.50;;;2.00;99.90;;;;;;5018002;28;20403;-65
2023/12/24 02:14:20;;;;;;;0.70;0.60;;;1.90;99.90;;;;;;5017458;28;20033;-65
2023/12/24 02:16:47;;;;;;;0.40;0.40;;;1.90;99.90;;;;;;5018352;28;20030;-64
2023/12/24 02:19:17;;;;;;;0.40;0.40;;;2.00;99.90;;;;;;5017614;28;20029;-64
2023/12/24 02:21:43;;;;;;;0.40;0.40;;;2.00;99.90;;;;;;5018373;28;20407;-64
2023/12/24 02:24:09;;;;;;;0.60;0.50;;;1.90;99.90;;;;;;5017976;28;20034;-64
2023/12/24 02:26:47;;;;;;;0.43;0.43;;;1.90;99.90;;;;;;5020038;28;20073;-65
2023/12/24 02:29:31;;;;;;;0.28;0.28;;;2.00;99.90;;;;;;5015492;28;20129;-65
2023/12/24 02:32:13;;;;;;;0.50;0.40;;;1.90;99.90;;;;;;5018142;28;20040;-65
2023/12/24 02:34:40;;;;;;;0.20;0.20;;;1.90;99.90;;;;;;5019628;28;20372;-65
2023/12/24 02:37:06;;;;;;;0.38;0.30;;;2.00;99.90;;;;;;5018251;28;20079;-66
2023/12/24 02:39:32;;;;;;;0.40;0.40;;;1.90;99.90;;;;;;5018019;28;20602;-65
2023/12/24 02:41:57;;;;;;;0.30;0.30;;;1.90;99.90;;;;;;5017759;28;20061;-65
2023/12/24 02:44:23;;;;;;;0.38;0.38;;;2.00;99.90;;;;;;5017776;28;20033;-66
2023/12/24 02:46:48;;;;;;;0.40;0.40;;;1.90;99.90;;;;;;5017265;28;20083;-66
2023/12/24 02:49:14;;;;;;;0.65;0.65;;;1.90;99.90;;;;;;5019887;28;20128;-65
2023/12/24 02:51:40;;;;;;;0.47;0.40;;;1.90;99.90;;;;;;5017886;28;20083;-65
2023/12/24 02:54:05;;;;;;;0.45;0.45;;;1.90;99.90;;;;;;5017783;28;20037;-65
2023/12/24 02:56:36;;;;;;;0.65;0.38;;;1.90;99.90;;;;;;5016362;28;20064;-64
2023/12/24 02:59:05;;;;;;;0.73;0.40;;;1.90;99.90;;;;;;5015612;28;20119;-64
2023/12/24 03:01:30;;;;;;;0.38;0.32;;;1.90;99.90;;;;;;5014262;28;20574;-64
2023/12/24 03:03:56;;;;;;;0.40;0.40;;;1.90;99.90;;;;;;5018654;28;20036;-65
2023/12/24 03:06:22;;;;;;;0.20;0.20;;;1.90;99.90;;;;;;5018251;28;20026;-65
2023/12/24 03:08:48;;;;;;;0.30;0.30;;;1.90;99.90;;;;;;5021372;28;20372;-65
2023/12/24 03:11:13;;;;;;;0.47;0.47;;;1.90;99.90;;;;;;5018937;28;20368;-65
2023/12/24 03:13:38;;;;;;;0.30;0.30;;;1.90;99.90;;;;;;5019721;28;20033;-65
2023/12/24 03:16:04;;;;;;;2.72;0.40;;;1.90;99.90;;;;;;5019654;28;20092;-64
2023/12/24 03:18:30;;;;;;;0.30;0.30;;;1.90;99.90;;;;;;5019870;28;20030;-65
2023/12/24 03:20:56;;;;;;;0.30;0.30;;;1.90;99.90;;;;;;5019537;28;20037;-65
2023/12/24 03:23:22;;;;;;;0.20;0.20;;;1.90;99.90;;;;;;5021233;28;20053;-65
2023/12/24 03:25:47;;;;;;;0.38;0.30;;;1.90;99.90;;;;;;5014760;28;20131;-65
2023/12/24 03:28:13;;;;;;;1.27;0.57;;;1.90;99.90;;;;;;5019276;28;20030;-63
2023/12/24 03:30:38;;;;;;;0.43;0.35;;;1.90;99.90;;;;;;5017934;28;20029;-62
2023/12/24 03:33:04;;;;;;;0.93;0.52;;;1.90;99.90;;;;;;5019461;28;20021;-65
2023/12/24 03:35:29;;;;;;;0.38;0.25;;;1.80;99.90;;;;;;5019522;28;20033;-65
2023/12/24 03:37:55;;;;;;;0.40;0.30;;;1.80;99.90;;;;;;5021443;28;20565;-65
2023/12/24 03:40:20;;;;;;;0.40;0.32;;;1.80;99.90;;;;;;5019498;28;20018;-65
2023/12/24 03:42:46;;;;;;;0.63;0.63;;;1.80;99.90;;;;;;5022161;28;20116;-65
2023/12/24 03:45:11;;;;;;;1.10;0.80;;;1.80;99.90;;;;;;5019348;28;20068;-65
2023/12/24 03:47:37;;;;;;;0.68;0.60;;;1.70;99.90;;;;;;5019416;28;20049;-64
2023/12/24 03:50:02;;;;;;;0.93;0.70;;;1.80;99.90;;;;;;5020781;28;20079;-65
2023/12/24 03:52:28;;;;;;;1.25;0.90;;;1.70;99.90;;;;;;5016820;28;20093;-65
2023/12/24 03:54:53;;;;;;;2.00;0.88;;;1.80;99.90;;;;;;5013299;28;20053;-66
2023/12/24 03:57:19;;;;;;;3.10;1.05;;;1.70;99.90;;;;;;5017358;28;20045;-65
2023/12/24 03:59:44;;;;;;;2.03;0.90;;;1.80;99.90;;;;;;5017520;28;20034;-65
2023/12/24 04:02:10;;;;;;;2.42;1.65;;;1.80;99.90;;;;;;5014597;28;20442;-64
2023/12/24 04:04:35;;;;;;;2.25;1.10;;;1.80;99.90;;;;;;5019497;28;20044;-66
2023/12/24 04:07:01;;;;;;;3.63;1.58;;;1.80;99.90;;;;;;5017607;28;20080;-66
2023/12/24 04:09:28;;;;;;;4.78;1.25;;;1.80;99.90;;;;;;5019005;28;20376;-65
2023/12/24 04:11:54;;;;;;;1.20;1.00;;;1.80;99.90;;;;;;5019018;28;20442;-65
2023/12/24 04:14:19;;;;;;;3.38;1.02;;;1.80;99.90;;;;;;5019141;28;20096;-65
2023/12/24 04:16:45;;;;;;;2.42;1.10;;;1.70;99.90;;;;;;5013040;28;20109;-65
2023/12/24 04:19:10;;;;;;;1.25;1.00;;;1.70;99.90;;;;;;5018949;28;20175;-65
2023/12/24 04:21:36;;;;;;;1.58;0.90;;;1.70;99.90;;;;;;5020956;28;20483;-65
2023/12/24 04:24:02;;;;;;;2.47;0.93;;;1.70;99.90;;;;;;5019000;28;20100;-65
2023/12/24 04:26:27;;;;;;;1.83;1.00;;;1.70;99.90;;;;;;5019089;28;20029;-65
2023/12/24 04:28:52;;;;;;;2.72;1.20;;;1.70;99.90;;;;;;5018668;28;20068;-65
2023/12/24 04:31:18;;;;;;;0.80;0.73;;;1.70;99.90;;;;;;5018817;28;20037;-66
2023/12/24 04:33:44;;;;;;;0.85;0.70;;;1.70;99.90;;;;;;5017586;28;20030;-64
2023/12/24 04:36:17;;;;;;;1.00;0.70;;;1.70;99.90;;;;;;5016656;28;20035;-65
2023/12/24 04:38:42;;;;;;;0.57;0.55;;;1.60;99.90;;;;;;5015694;28;20026;-64
2023/12/24 04:41:17;;;;;;;1.00;0.70;;;1.60;99.90;;;;;;5020589;28;20037;-65
2023/12/24 04:43:43;;;;;;;2.53;0.60;;;1.60;99.90;;;;;;5020602;28;20483;-65
2023/12/24 04:46:08;;;;;;;0.80;0.73;;;1.60;99.90;;;;;;5022393;28;20284;-65
2023/12/24 04:48:34;;;;;;;0.57;0.55;;;1.50;99.90;;;;;;5022337;28;20037;-64
2023/12/24 04:50:59;;;;;;;0.60;0.50;;;1.50;99.90;;;;;;5022676;28;20033;-64
2023/12/24 04:53:25;;;;;;;0.68;0.52;;;1.60;99.90;;;;;;5020957;28;20045;-65
2023/12/24 04:55:50;;;;;;;0.65;0.50;;;1.50;99.90;;;;;;5022343;28;20033;-64
2023/12/24 04:58:16;;;;;;;0.75;0.60;;;1.60;99.90;;;;;;5024297;28;20049;-65
2023/12/24 05:00:41;;;;;;;0.43;0.43;;;1.50;99.90;;;;;;5022336;28;20026;-65
2023/12/24 05:03:07;;;;;;;0.65;0.45;;;1.60;99.90;;;;;;5013523;28;20030;-64
2023/12/24 05:05:32;;;;;;;0.82;0.60;;;1.50;99.90;;;;;;5022054;28;20033;-65
2023/12/24 05:07:58;;;;;;;0.95;0.50;;;1.50;99.90;;;;;;5021969;28;20606;-64
2023/12/24 05:10:23;;;;;;;1.00;0.40;;;1.50;99.90;;;;;;5022378;28;20025;-64
2023/12/24 05:12:49;;;;;;;0.57;0.50;;;1.50;99.90;;;;;;5023738;28;20033;-65
2023/12/24 05:15:16;;;;;;;1.45;0.75;;;1.50;99.90;;;;;;5022256;28;20432;-65
2023/12/24 05:17:42;;;;;;;2.47;0.40;;;1.50;99.90;;;;;;5020378;28;20022;-64
2023/12/24 05:20:08;;;;;;;0.55;0.40;;;1.50;99.90;;;;;;5022146;28;20029;-64
2023/12/24 05:22:33;;;;;;;0.40;0.38;;;1.50;99.90;;;;;;5021862;28;20040;-64
2023/12/24 05:24:59;;;;;;;0.45;0.43;;;1.50;99.90;;;;;;5021862;28;20017;-64
2023/12/24 05:27:24;;;;;;;0.82;0.57;;;1.50;99.90;;;;;;5023602;28;20032;-65
2023/12/24 05:29:50;;;;;;;0.50;0.50;;;1.50;99.90;;;;;;5022065;28;20033;-65
2023/12/24 05:32:15;;;;;;;0.55;0.50;;;1.50;99.90;;;;;;5021924;28;20092;-64
2023/12/24 05:34:41;;;;;;;1.58;0.70;;;1.50;99.90;;;;;;5021889;28;20045;-64
2023/12/24 05:37:06;;;;;;;1.13;0.70;;;1.50;99.90;;;;;;5021595;28;20033;-64
2023/12/24 05:39:31;;;;;;;1.45;0.70;;;1.40;99.90;;;;;;5022043;28;20036;-66
2023/12/24 05:41:57;;;;;;;1.15;0.90;;;1.50;99.90;;;;;;5021490;28;20045;-65
2023/12/24 05:44:22;;;;;;;2.20;1.10;;;1.50;99.90;;;;;;5021654;28;20025;-66
2023/12/24 05:46:51;;;;;;;1.13;0.98;;;1.50;99.90;;;;;;5020579;28;20128;-66
2023/12/24 05:49:17;;;;;;;2.15;0.75;;;1.50;99.90;;;;;;5021388;28;20099;-65
2023/12/24 05:51:42;;;;;;;0.55;0.43;;;1.50;99.90;;;;;;5021269;28;20029;-65
2023/12/24 05:54:08;;;;;;;1.63;0.65;;;1.50;99.90;;;;;;5020058;28;20091;-65
2023/12/24 05:56:34;;;;;;;0.38;0.25;;;1.50;99.90;;;;;;5023209;28;20037;-65
2023/12/24 05:58:59;;;;;;;1.25;0.50;;;1.50;99.90;;;;;;5017191;28;20037;-65
2023/12/24 06:01:24;;;;;;;1.52;0.70;;;1.50;99.90;;;;;;5015039;28;20042;-65
2023/12/24 06:03:50;;;;;;;1.42;0.90;;;1.50;99.90;;;;;;5018159;28;20356;-65
2023/12/24 06:06:15;;;;;;;0.85;0.52;;;1.50;99.90;;;;;;5020929;28;20095;-65
2023/12/24 06:08:41;;;;;;;0.70;0.55;;;1.50;99.90;;;;;;5021083;28;20124;-64
2023/12/24 06:11:15;;;;;;;0.70;0.60;;;1.60;99.90;;;;;;5021248;28;20092;-65
2023/12/24 06:13:40;;;;;;;1.42;0.60;;;1.60;99.90;;;;;;5014673;28;20505;-65
2023/12/24 06:16:06;;;;;;;1.65;0.85;;;1.60;99.90;;;;;;5020811;28;20044;-65
2023/12/24 06:18:32;;;;;;;0.63;0.50;;;1.60;99.90;;;;;;5016765;28;20036;-65
2023/12/24 06:20:57;;;;;;;1.92;0.80;;;1.70;99.90;;;;;;5020711;28;20021;-65
2023/12/24 06:23:23;;;;;;;2.78;1.15;;;1.70;99.90;;;;;;5020818;28;20024;-65
2023/12/24 06:25:48;;;;;;;0.90;0.60;;;1.70;99.90;;;;;;5022815;28;20025;-65
2023/12/24 06:28:14;;;;;;;2.80;1.38;;;1.70;99.90;;;;;;5020623;28;20033;-64
2023/12/24 06:30:39;;;;;;;2.63;1.42;;;1.80;99.90;;;;;;5022420;28;20048;-65
2023/12/24 06:33:05;;;;;;;1.70;1.20;;;1.80;99.90;;;;;;5016447;28;20037;-66
2023/12/24 06:35:31;;;;;;;2.42;1.70;;;1.80;99.90;;;;;;5020211;28;20037;-64
2023/12/24 06:37:57;;;;;;;4.00;2.10;;;1.80;99.90;;;;;;5014996;28;20036;-65
2023/12/24 06:40:23;;;;;;;1.88;1.27;;;1.90;99.90;;;;;;5013040;28;20056;-64
2023/12/24 06:42:49;;;;;;;2.45;1.63;;;1.90;99.90;;;;;;5018272;28;20479;-64
2023/12/24 06:45:14;;;;;;;2.78;1.35;;;2.00;99.90;;;;;;5021742;28;20104;-65
2023/12/24 06:47:40;;;;;;;3.08;1.40;;;2.00;99.90;;;;;;5020164;28;20543;-64
2023/12/24 06:50:06;;;;;;;3.58;1.63;;;2.10;99.90;;;;;;5019663;28;20100;-64
2023/12/24 06:52:32;;;;;;;1.35;0.98;;;2.10;99.90;;;;;;5019989;28;20033;-64
2023/12/24 06:54:58;;;;;;;1.80;1.15;;;2.20;99.90;;;;;;5019750;28;20028;-64
2023/12/24 06:57:23;;;;;;;1.65;1.08;;;2.20;99.90;;;;;;5020266;28;20403;-64
2023/12/24 06:59:49;;;;;;;0.70;0.60;;;2.30;99.90;;;;;;5017467;28;20021;-65
2023/12/24 07:02:15;;;;;;;0.70;0.70;;;2.30;99.90;;;;;;5011405;28;20030;-65
2023/12/24 07:04:41;;;;;;;0.90;0.90;;;2.40;99.90;;;;;;5019822;28;20049;-65
2023/12/24 07:07:06;;;;;;;1.10;0.80;;;2.40;99.90;;;;;;5017919;28;20514;-65
2023/12/24 07:09:32;;;;;;;0.60;0.60;;;2.50;99.90;;;;;;5011737;28;20134;-65
2023/12/24 07:11:57;;;;;;;0.95;0.70;;;2.50;99.90;;;;;;5014737;28;20450;-65
2023/12/24 07:14:23;;;;;;;0.80;0.80;;;2.60;99.90;;;;;;5019423;28;20029;-66
2023/12/24 07:16:48;;;;;;;1.70;0.93;;;2.60;99.90;;;;;;5017526;28;20083;-65
2023/12/24 07:19:14;;;;;;;2.80;1.13;;;2.70;99.90;;;;;;5014277;28;20079;-63
2023/12/24 07:21:39;;;;;;;2.13;1.13;;;2.80;99.90;;;;;;5015989;28;20106;-66
2023/12/24 07:24:05;;;;;;;1.10;1.00;;;2.80;99.90;;;;;;5018684;28;20065;-66
2023/12/24 07:26:31;;;;;;;1.92;1.40;;;2.80;99.90;;;;;;5018593;28;20125;-65
2023/12/24 07:28:56;;;;;;;1.58;1.05;;;2.90;99.90;;;;;;5011306;28;20761;-66
2023/12/24 07:31:22;;;;;;;2.00;1.33;;;3.00;99.90;;;;;;5016974;28;20021;-66
2023/12/24 07:33:47;;;;;;;1.50;1.10;;;3.00;99.90;;;;;;5018107;28;20046;-66
2023/12/24 07:36:13;;;;;;;1.35;0.90;;;3.10;99.90;;;;;;5015976;28;20029;-66
2023/12/24 07:38:39;;;;;;;2.33;1.60;;;3.10;99.90;;;;;;5017273;28;20053;-65
2023/12/24 07:41:04;;;;;;;2.42;1.50;;;3.20;99.90;;;;;;5018118;28;20045;-65
2023/12/24 07:43:30;;;;;;;1.45;1.00;;;3.30;99.90;;;;;;5018501;28;20131;-64
2023/12/24 07:45:56;;;;;;;1.67;1.30;;;3.30;99.90;;;;;;5019950;28;20049;-66
2023/12/24 07:48:24;;;;;;;2.00;1.52;;;3.40;99.90;;;;;;5015103;28;20064;-64
2023/12/24 07:50:49;;;;;;;2.22;1.40;;;3.50;99.90;;;;;;5015854;28;20449;-65
2023/12/24 07:53:15;;;;;;;2.90;1.92;;;3.60;99.90;;;;;;5018115;28;20104;-65
2023/12/24 07:55:41;;;;;;;2.50;1.90;;;3.70;99.90;;;;;;5013023;28;20042;-65
2023/12/24 07:58:06;;;;;;;3.60;2.35;;;3.70;99.90;;;;;;5013894;28;20451;-70
2023/12/24 08:00:32;;;;;;;3.45;2.45;;;3.80;99.90;;;;;;5015719;28;20399;-63
2023/12/24 08:02:57;;;;;;;3.10;1.98;;;3.90;99.90;;;;;;5011347;28;20104;-61
2023/12/24 08:05:23;;;;;;;2.85;1.70;;;4.00;99.90;;;;;;5017568;28;20065;-63
2023/12/24 08:07:48;;;;;;;4.20;2.83;;;4.00;99.90;;;;;;5016298;28;20033;-63
2023/12/24 08:10:14;;;;;;;3.35;2.38;;;4.20;99.90;;;;;;5016601;28;20030;-63
2023/12/24 08:12:39;;;;;;;5.03;3.08;;;4.20;99.90;;;;;;5017308;28;20116;-63
2023/12/24 08:15:06;;;;;;;2.95;2.05;;;4.40;99.90;;;;;;5017343;28;20029;-62
2023/12/24 08:17:31;;;;;;;3.03;2.40;;;4.50;99.90;;;;;;5018507;28;20049;-63
2023/12/24 08:19:57;;;;;;;5.90;2.35;;;4.60;99.90;;;;;;5021317;28;20079;-64
2023/12/24 08:22:22;;;;;;;3.83;2.40;;;4.80;99.90;;;;;;5012093;28;20033;-63
2023/12/24 08:24:49;;;;;;;3.75;2.78;;;5.00;99.90;;;;;;5016949;28;20577;-64
2023/12/24 08:27:15;;;;;;;3.65;2.70;;;5.10;99.90;;;;;;5015879;28;20040;-63
2023/12/24 08:29:40;;;;;;;3.13;2.63;;;5.30;99.90;;;;;;5015651;28;20026;-64
2023/12/24 08:32:06;;;;;;;4.07;2.70;;;5.40;99.90;;;;;;5022113;28;20025;-64
2023/12/24 08:34:32;;;;;;;3.15;2.17;;;5.60;99.90;;;;;;5016039;28;20028;-63
2023/12/24 08:36:58;;;;;;;3.00;2.47;;;5.70;99.90;;;;;;5020392;28;20091;-64
2023/12/24 08:39:23;;;;;;;3.20;2.47;;;5.90;99.90;;;;;;5020847;28;20447;-64
2023/12/24 08:41:49;;;;;;;4.20;3.05;;;6.00;99.90;;;;;;5021357;28;20026;-64
2023/12/24 08:44:16;;;;;;;5.70;3.13;;;6.10;99.90;;;;;;5019252;28;20029;-61
2023/12/24 08:46:41;;;;;;;6.88;3.65;;;6.30;99.90;;;;;;5021568;28;20028;-61
2023/12/24 08:49:08;;;;;;;5.60;3.28;;;6.40;99.90;;;;;;5017609;28;20037;-62
2023/12/24 08:51:33;;;;;;;5.20;3.30;;;6.50;99.90;;;;;;5021023;28;20064;-62
2023/12/24 08:53:59;;;;;;;6.75;3.55;;;6.60;99.90;;;;;;5023365;28;20057;-62
2023/12/24 08:56:25;;;;;;;4.72;3.40;;;6.70;99.90;;;;;;5022459;28;20018;-62
2023/12/24 08:58:50;;;;;;;3.47;3.13;;;6.80;99.90;;;;;;5022144;28;20563;-61
2023/12/24 09:01:17;;;;;;;5.78;2.85;;;6.90;99.90;;;;;;5023885;28;20464;-61
2023/12/24 09:03:42;;;;;;;6.05;3.67;;;7.00;99.90;;;;;;5019062;28;20677;-62
2023/12/24 09:06:08;;;;;;;3.78;2.97;;;7.10;99.90;;;;;;5021746;28;20041;-61
2023/12/24 09:08:33;;;;;;;4.75;3.47;;;7.30;99.90;;;;;;5020471;28;20070;-61
2023/12/24 09:10:59;;;;;;;3.80;2.85;;;7.30;99.90;;;;;;5022070;28;20083;-61
2023/12/24 09:13:24;;;;;;;4.20;3.45;;;7.40;99.90;;;;;;5021928;28;20400;-61
2023/12/24 09:15:50;;;;;;;4.10;3.53;;;7.50;99.90;;;;;;5022180;28;20024;-61
2023/12/24 09:18:15;;;;;;;3.80;3.38;;;7.60;99.90;;;;;;5019866;28;20055;-62
2023/12/24 09:20:41;;;;;;;6.75;4.03;;;7.70;99.90;;;;;;5017179;28;20112;-62
2023/12/24 09:23:06;;;;;;;5.32;3.60;;;7.80;99.90;;;;;;5018117;28;20037;-62
2023/12/24 09:25:31;;;;;;;4.70;3.53;;;7.80;99.90;;;;;;5016394;28;20014;-61
2023/12/24 09:27:57;;;;;;;7.30;3.78;;;7.90;99.90;;;;;;5016471;28;20486;-61
2023/12/24 09:30:24;;;;;;;4.15;3.17;;;8.00;99.90;;;;;;5015444;28;20021;-62
2023/12/24 09:32:49;;;;;;;5.03;3.30;;;8.00;99.90;;;;;;5021784;28;20678;-63
2023/12/24 09:35:15;;;;;;;4.63;3.05;;;8.10;99.90;;;;;;5022062;28;20036;-62
2023/12/24 09:37:40;;;;;;;4.55;3.60;;;8.10;99.90;;;;;;5021473;28;20100;-62
2023/12/24 09:40:07;;;;;;;5.13;3.28;;;8.20;99.90;;;;;;5012620;28;20037;-61
2023/12/24 09:42:33;;;;;;;5.03;2.90;;;8.20;99.90;;;;;;5020721;28;20029;-61
2023/12/24 09:44:59;;;;;;;4.60;3.08;;;8.30;99.90;;;;;;5018943;28;20025;-61
2023/12/24 09:47:24;;;;;;;3.97;2.92;;;8.40;99.90;;;;;;5023050;28;20372;-62
2023/12/24 09:49:50;;;;;;;5.75;3.58;;;8.40;99.90;;;;;;5021342;28;20037;-62
2023/12/24 09:52:15;;;;;;;3.45;2.83;;;8.40;99.90;;;;;;5021324;28;20503;-62
2023/12/24 09:54:42;;;;;;;3.95;3.10;;;8.50;99.90;;;;;;5021182;28;20121;-61
2023/12/24 09:57:08;;;;;;;5.78;3.15;;;8.50;99.90;;;;;;5020927;28;20063;-61
2023/12/24 09:59:33;;;;;;;4.50;2.75;;;8.50;99.90;;;;;;5017075;28;20098;-61
2023/12/24 10:01:59;;;;;;;2.97;2.30;;;8.50;99.90;;;;;;5018132;28;20029;-61
2023/12/24 10:04:24;;;;;;;3.58;1.83;;;8.60;99.90;;;;;;5020929;28;20424;-61
2023/12/24 10:06:58;;;;;;;3.15;2.47;;;8.60;99.90;;;;;;5017648;28;20038;-62
2023/12/24 10:09:40;;;;;;;3.83;2.10;;;8.60;99.90;;;;;;5016589;28;20069;-62
2023/12/24 10:12:08;;;;;;;3.50;2.50;;;8.60;99.90;;;;;;5019608;28;20021;-62
2023/12/24 10:14:34;;;;;;;3.42;2.60;;;8.60;99.90;;;;;;5019552;28;20025;-61
2023/12/24 10:17:01;;;;;;;3.08;2.10;;;8.70;99.90;;;;;;5022015;28;20025;-63
2023/12/24 10:19:27;;;;;;;3.17;2.17;;;8.70;99.90;;;;;;5016442;28;20112;-62
2023/12/24 10:22:07;;;;;;;2.30;1.60;;;8.80;99.90;;;;;;5020723;28;20081;-62
2023/12/24 10:24:40;;;;;;;2.17;1.60;;;8.80;99.90;;;;;;5020505;28;20029;-62
2023/12/24 10:27:07;;;;;;;2.53;1.83;;;8.80;99.90;;;;;;5018552;28;20625;-62
2023/12/24 10:29:38;;;;;;;8.85;5.10;;;8.80;99.90;;;;;;5018599;28;20679;-61
2023/12/24 10:32:03;;;;;;;3.50;2.63;;;8.80;99.90;;;;;;5012671;28;20101;-62
2023/12/24 10:34:30;;;;;;;2.00;1.75;;;8.80;99.90;;;;;;5009364;28;20113;-62
2023/12/24 10:36:58;;;;;;;2.95;1.48;;;8.90;99.90;;;;;;5009880;28;20030;-62
2023/12/24 10:39:24;;;;;;;1.40;1.30;;;8.80;99.90;;;;;;5017442;28;20017;-62
2023/12/24 10:41:56;;;;;;;3.03;1.40;;;8.90;99.90;;;;;;5018115;28;20089;-63
2023/12/24 10:44:22;;;;;;;4.03;1.27;;;8.90;99.90;;;;;;5017642;28;20033;-62
2023/12/24 10:46:48;;;;;;;1.50;1.40;;;8.90;99.90;;;;;;5017523;28;20021;-61
2023/12/24 10:49:14;;;;;;;1.20;0.90;;;8.90;99.90;;;;;;5011604;28;20032;-61
2023/12/24 10:51:39;;;;;;;1.23;1.00;;;8.90;99.90;;;;;;5021153;28;20029;-62
2023/12/24 10:54:08;;;;;;;0.98;0.80;;;8.90;99.90;;;;;;5009343;28;20030;-62
2023/12/24 10:56:47;;;;;;;1.25;0.68;;;8.90;99.90;;;;;;5011569;28;20026;-61
2023/12/24 10:59:22;;;;;;;0.80;0.73;;;8.90;99.90;;;;;;5012363;28;20045;-62
2023/12/24 11:01:50;;;;;;;0.45;0.45;;;8.90;99.90;;;;;;5009689;28;20534;-62
2023/12/24 11:04:45;;;;;;;0.73;0.73;;;8.90;99.90;;;;;;5008046;28;20042;-62
2023/12/24 11:07:45;;;;;;;0.63;0.50;;;8.90;99.90;;;;;;5009814;28;20466;-62
2023/12/24 11:10:43;;;;;;;0.73;0.68;;;8.90;99.90;;;;;;5010082;28;20040;-62
2023/12/24 11:13:31;;;;;;;0.60;0.60;;;8.90;99.90;;;;;;5006653;28;20099;-62
2023/12/24 11:15:58;;;;;;;1.10;0.90;;;8.90;99.90;;;;;;5012985;28;20052;-61
2023/12/24 11:18:47;;;;;;;1.02;0.75;;;8.90;99.90;;;;;;5013235;28;20438;-63
2023/12/24 11:21:15;;;;;;;0.95;0.90;;;8.90;99.90;;;;;;5016866;28;20038;-63
2023/12/24 11:23:42;;;;;;;5.78;2.72;;;8.90;99.90;;;;;;5013814;28;20403;-63
2023/12/24 11:26:27;;;;;;;1.95;1.15;;;9.00;99.90;;;;;;5014201;28;20080;-63
2023/12/24 11:28:53;;;;;;;3.33;1.88;;;9.00;99.90;;;;;;5017312;28;20025;-62
2023/12/24 11:31:25;;;;;;;1.80;1.17;;;9.10;99.90;;;;;;5010688;28;22188;-63
2023/12/24 11:33:54;;;;;;;0.80;0.80;;;9.10;99.90;;;;;;5015812;28;20037;-64
2023/12/24 11:36:20;;;;;;;2.55;1.20;;;9.10;99.90;;;;;;5013004;28;20649;-63
2023/12/24 11:38:47;;;;;;;0.90;0.70;;;9.10;99.90;;;;;;5016880;28;20066;-64
2023/12/24 11:41:22;;;;;;;1.10;0.80;;;9.20;99.90;;;;;;5016662;28;20438;-63
2023/12/24 11:43:59;;;;;;;1.17;0.70;;;9.20;99.90;;;;;;5009308;28;20029;-63
2023/12/24 11:46:29;;;;;;;1.60;0.70;;;9.20;99.90;;;;;;5016579;28;20021;-64
2023/12/24 11:48:55;;;;;;;0.95;0.60;;;9.20;99.90;;;;;;5013900;28;20045;-64
2023/12/24 11:51:24;;;;;;;1.25;0.60;;;9.20;99.90;;;;;;5018167;28;20030;-64
2023/12/24 11:54:00;;;;;;;0.50;0.50;;;9.30;99.90;;;;;;5021095;28;20029;-63
2023/12/24 11:56:27;;;;;;;1.40;0.90;;;9.30;99.90;;;;;;5019084;28;20025;-64
2023/12/24 11:59:06;;;;;;;1.05;0.70;;;9.30;99.90;;;;;;5012960;28;20162;-64
2023/12/24 12:01:36;;;;;;;0.50;0.50;;;9.30;99.90;;;;;;5009681;28;20492;-63
2023/12/24 12:04:03;;;;;;;0.57;0.57;;;9.30;99.90;;;;;;5011680;28;20029;-64
2023/12/24 12:06:30;;;;;;;1.00;0.60;;;9.30;99.90;;;;;;5015792;28;20033;-64
2023/12/24 12:08:58;;;;;;;1.13;1.00;;;9.30;99.90;;;;;;5020261;28;20030;-63
2023/12/24 12:11:23;;;;;;;1.05;0.80;;;9.30;99.90;;;;;;5018479;28;20240;-63
2023/12/24 12:13:49;;;;;;;0.63;0.63;;;9.30;99.90;;;;;;5013094;28;20021;-62
2023/12/24 12:16:14;;;;;;;0.90;0.77;;;9.40;99.90;;;;;;5010444;28;20025;-62
2023/12/24 12:18:40;;;;;;;1.40;1.00;;;9.40;99.90;;;;;;5014095;28;20030;-62
2023/12/24 12:21:10;;;;;;;1.85;0.65;;;9.40;99.90;;;;;;5016974;28;20125;-62
2023/12/24 12:23:36;;;;;;;2.60;0.73;;;9.40;99.90;;;;;;5011524;28;20674;-63
2023/12/24 12:26:01;;;;;;;0.80;0.80;;;9.40;99.90;;;;;;5017649;28;20065;-63
2023/12/24 12:28:27;;;;;;;1.80;0.80;;;9.40;99.90;;;;;;5011282;28;20144;-63
2023/12/24 12:30:52;;;;;;;2.33;1.45;;;9.40;99.90;;;;;;5012605;28;20053;-61
2023/12/24 12:33:18;;;;;;;2.70;1.40;;;9.40;99.90;;;;;;5011411;28;20863;-63
2023/12/24 12:35:43;;;;;;;1.05;0.80;;;9.60;99.90;;;;;;5013045;28;20029;-61
2023/12/24 12:38:09;;;;;;;1.35;1.00;;;9.60;99.90;;;;;;5014099;28;20025;-61
2023/12/24 12:40:34;;;;;;;1.63;1.20;;;9.70;99.90;;;;;;5008918;28;20256;-60
2023/12/24 12:43:00;;;;;;;1.25;1.05;;;9.70;99.90;;;;;;5011606;28;20029;-61
2023/12/24 12:45:25;;;;;;;1.92;1.40;;;9.80;99.90;;;;;;5016329;28;20104;-61
2023/12/24 12:47:51;;;;;;;1.83;1.20;;;9.80;99.90;;;;;;5011967;28;20083;-61
2023/12/24 12:50:16;;;;;;;2.45;1.17;;;9.90;99.90;;;;;;5019609;28;20514;-62
2023/12/24 12:52:42;;;;;;;1.25;0.88;;;10.00;99.90;;;;;;5017448;28;20100;-62
2023/12/24 12:55:11;;;;;;;2.92;1.00;;;9.90;99.90;;;;;;5014294;28;20535;-61